Time;durP1;ratioP1;P1;durP2;ratioP2;P2;SDS_P1;SDS_P2;PMS_P1;PMS_P2;Temp;Humidity;BMP_temperature;BMP_pressure;BME280_temperature;BME280_humidity;BME280_pressure;Samples;Min_cycle;Max_cycle;Signal;HPM_P1;HPM_P2
2021/04/10 13:14:24;;;;;;;116.28;63.50;;;;;;;10.57;81.73;100483.73;114736;1167;332211;-71
2021/04/10 13:16:51;;;;;;;104.80;54.53;;;;;;;10.58;81.81;100483.59;114420;1169;371792;-71
2021/04/10 13:34:23;;;;;;;331.68;108.55;;;;;;;10.54;84.56;100478.76;714394;1167;415180;-73
2021/04/10 13:49:25;;;;;;;152.35;66.10;;;;;;;10.43;86.31;100467.38;714323;1167;313467;-73
2021/04/10 14:04:30;;;;;;;87.80;43.20;;;;;;;10.33;89.28;100484.81;715003;1203;115667;-74
2021/04/10 14:22:18;;;;;;;162.40;66.90;;;;;;;10.31;90.31;100497.23;716534;1175;25972;-75
2021/04/10 14:37:21;;;;;;;82.15;37.78;;;;;;;10.29;88.20;100491.28;715701;1200;115843;-75
2021/04/10 14:52:22;;;;;;;137.60;53.55;;;;;;;10.40;87.69;100493.02;714956;1199;114803;-74
2021/04/10 15:07:24;;;;;;;63.50;34.00;;;;;;;10.25;86.23;100482.83;715196;1202;114483;-75
2021/04/10 15:22:27;;;;;;;65.10;29.23;;;;;;;10.29;86.59;100486.88;714720;1199;114752;-75
2021/04/10 15:37:28;;;;;;;95.40;37.60;;;;;;;10.26;86.56;100496.79;714655;1180;114134;-75
2021/04/10 15:52:30;;;;;;;185.57;78.40;;;;;;;10.11;88.05;100497.10;715024;1199;114380;-75
2021/04/10 16:07:32;;;;;;;92.03;43.63;;;;;;;9.96;90.02;100496.59;714815;1202;113912;-75
2021/04/10 16:22:34;;;;;;;138.70;58.95;;;;;;;9.81;91.04;100485.55;715223;1199;114532;-75
2021/04/10 16:37:35;;;;;;;151.85;59.75;;;;;;;9.80;92.89;100488.30;716987;1200;113632;-90
2021/04/10 16:52:37;;;;;;;121.93;58.50;;;;;;;9.71;93.18;100492.49;717073;1198;115034;-87
2021/04/10 17:07:39;;;;;;;163.55;69.70;;;;;;;9.54;95.32;100503.51;717337;1198;115216;-87
2021/04/10 17:22:41;;;;;;;143.75;59.63;;;;;;;9.47;96.96;100517.08;717851;1200;115292;-89
2021/04/10 17:37:43;;;;;;;242.77;86.13;;;;;;;9.24;98.97;100524.16;718525;1199;114040;-89
2021/04/10 17:52:47;;;;;;;97.70;44.60;;;;;;;9.01;100.00;100530.36;717884;1199;114609;-88
2021/04/10 18:07:48;;;;;;;118.58;51.33;;;;;;;9.00;100.00;100560.94;717059;1200;113942;-75
2021/04/10 18:22:51;;;;;;;163.35;75.20;;;;;;;8.88;100.00;100567.09;714962;1200;115318;-75
2021/04/10 18:37:57;;;;;;;208.15;82.03;;;;;;;8.75;100.00;100572.42;715231;1199;114277;-76
2021/04/10 18:52:59;;;;;;;156.55;64.05;;;;;;;8.66;100.00;100579.20;715026;1200;113957;-76
2021/04/10 19:08:02;;;;;;;193.10;68.93;;;;;;;8.59;100.00;100591.91;714317;1196;114326;-75
2021/04/10 19:23:04;;;;;;;129.48;61.30;;;;;;;8.39;100.00;100590.72;714894;1202;114869;-76
2021/04/10 19:38:06;;;;;;;134.70;58.30;;;;;;;8.36;100.00;100597.98;715358;1199;114172;-76
2021/04/10 19:53:10;;;;;;;85.80;37.60;;;;;;;8.31;100.00;100612.22;715618;1199;114173;-75
2021/04/10 20:08:12;;;;;;;113.43;44.43;;;;;;;8.23;100.00;100605.88;715937;1200;115324;-76
2021/04/10 20:23:22;;;;;;;127.25;48.28;;;;;;;8.08;100.00;100615.67;715771;1199;114672;-76
2021/04/10 20:38:35;;;;;;;135.75;53.45;;;;;;;7.89;100.00;100619.61;715537;1200;114047;-75
2021/04/10 20:53:37;;;;;;;123.65;47.15;;;;;;;7.88;100.00;100637.98;715830;1187;114071;-75
2021/04/10 21:08:39;;;;;;;86.80;37.30;;;;;;;7.63;100.00;100639.73;715763;1190;114137;-74
2021/04/10 21:23:44;;;;;;;66.18;26.35;;;;;;;7.45;100.00;100655.72;716541;1200;26073;-74
2021/04/10 21:38:45;;;;;;;65.83;26.40;;;;;;;7.23;100.00;100660.75;716462;1200;113626;-74
2021/04/10 21:53:48;;;;;;;68.40;28.03;;;;;;;7.24;100.00;100662.42;715135;1199;115330;-75
2021/04/10 22:08:50;;;;;;;61.23;23.30;;;;;;;7.15;100.00;100667.33;714971;1199;115445;-76
2021/04/10 22:23:53;;;;;;;49.65;20.85;;;;;;;7.01;100.00;100667.42;714814;1199;113941;-75
2021/04/10 22:38:54;;;;;;;66.60;23.18;;;;;;;6.86;100.00;100669.26;714344;1198;114717;-75
2021/04/10 22:53:56;;;;;;;37.57;15.43;;;;;;;6.81;100.00;100666.97;714651;1199;114977;-76
2021/04/10 23:08:58;;;;;;;34.55;15.80;;;;;;;6.77;100.00;100664.66;714395;1199;113997;-80
2021/04/10 23:24:00;;;;;;;38.60;16.20;;;;;;;6.72;100.00;100667.58;714082;1199;114091;-75
2021/04/10 23:39:02;;;;;;;45.60;19.18;;;;;;;6.50;100.00;100653.33;714405;1199;114806;-76
2021/04/10 23:54:04;;;;;;;40.83;16.63;;;;;;;6.40;100.00;100636.64;715043;1189;113974;-76
